Nearby METAR Reports

 

KBAX - Bad Axe, Michigan, USA
Distance from station: ESE 22mi, 35km
Updated: Sun, 19-Aug-2018 3:56pm EDT
Light rain, Overcast
Light rain, Overcast
 Wind from calm
Wind: Calm
Temperature: 72°F , 22°C
Dew Point: 66°F , 19°C
Humidity: 83%
Barometer: 30.02 inHg , 1016.6 hPa
Summary: Light rain
Clouds: Overcast
Visibility: 7 miles , 11 km
Cloud details: Overcast 3900 ft
2018/08/19 19:56 KBAX 191956Z AUTO 00000KT 7SM -RA OVC039 22/19 A3002 RMK AO2 T02220188
KFNT - Flint, Michigan, USA
Distance from station: SSW 68mi, 109km
Updated: Sun, 19-Aug-2018 3:53pm EDT
Clear
Clear
 Wind from SE
Wind: SE 6 mph , 9 km/h
Temperature: 81°F , 27°C
Heat Index: 83°F , 28°C
Dew Point: 64°F , 18°C
Humidity: 58%
Barometer: 30.01 inHg , 1016.3 hPa
Clouds: Clear
Visibility: 10 miles , 16 km
2018/08/19 19:53 KFNT 191953Z 13005KT 10SM CLR 27/18 A3001 RMK AO2 SLP157 T02720178
KMBS - Saginaw, Michigan, USA
Distance from station: SW 44mi, 70km
Updated: Sun, 19-Aug-2018 3:53pm EDT
Partly cloudy
Partly cloudy
 Wind from ESE
Wind: ESE 7 mph , 11 km/h
Temperature: 82°F , 28°C
Heat Index: 86°F , 30°C
Dew Point: 70°F , 21°C
Humidity: 66%
Barometer: 30.01 inHg , 1016.3 hPa
Clouds: Partly cloudy
Visibility: 10 miles , 16 km
Cloud details: Partly cloudy 3100 ft
Partly cloudy 7000 ft
2018/08/19 19:53 KMBS 191953Z 11006KT 10SM SCT031 SCT070 28/21 A3001 RMK AO2 SLP159 T02830206
 
KDTW - Detroit/Wayne, Michigan, USA
Distance from station: SSE 117mi, 188km
Updated: Sun, 19-Aug-2018 3:53pm EDT
Partly cloudy
Partly cloudy
 Wind from SE
Wind: SE 7 mph , 11 km/h
Temperature: 81°F , 27°C
Heat Index: 82°F , 28°C
Dew Point: 63°F , 17°C
Humidity: 54%
Barometer: 30.02 inHg , 1016.6 hPa
Clouds: Partly cloudy
Visibility: 10 miles , 16 km
Cloud details: Partly cloudy 3500 ft
2018/08/19 19:53 KDTW 191953Z 13006KT 10SM SCT035 27/17 A3002 RMK AO2 SLP162 T02720172
KP58 - Port Hope, Michigan, USA
Distance from station: ENE 30mi, 48km
Updated: Sun, 19-Aug-2018 3:51pm EDT

 Wind from SE
Wind: SE 13 mph , 20 km/h
Temperature: 75°F , 24°C
Dew Point: 68°F , 20°C
Humidity: 78%
Barometer: 30.01 inHg , 1016.3 hPa
2018/08/19 19:51 KP58 191951Z AUTO 13011KT 24/20 A3001 RMK AO1 SLP155 T02440200
KCFS - Caro/Tuscola, Michigan, USA
Distance from station: S 31mi, 50km
Updated: Sun, 19-Aug-2018 3:55pm EDT
Clear
Clear
 Wind from SE
Wind: SE 6 mph , 9 km/h
Temperature: 81°F , 27°C
Heat Index: 83°F , 28°C
Dew Point: 66°F , 19°C
Humidity: 62%
Barometer: 30.01 inHg , 1016.3 hPa
Clouds: Clear
Visibility: 10 miles , 16 km
2018/08/19 19:55 KCFS 191955Z AUTO 13005KT 10SM CLR 27/19 A3001 RMK AO2 T02690185
 
KPHN - Port Huron, Michigan, USA
Distance from station: SSE 81mi, 131km
Updated: Sun, 19-Aug-2018 3:55pm EDT
Partly cloudy
Partly cloudy
 Wind from SE
Wind: SE 6 mph , 9 km/h
Temperature: 79°F , 26°C
Dew Point: 64°F , 18°C
Humidity: 61%
Barometer: 30.02 inHg , 1016.6 hPa
Clouds: Partly cloudy
Visibility: 10 miles , 16 km
Cloud details: Partly cloudy 3400 ft
2018/08/19 19:55 KPHN 191955Z AUTO 14005KT 10SM SCT034 26/18 A3002 RMK AO2
KPTK - Pontiac, Michigan, USA
Distance from station: S 86mi, 138km
Updated: Sun, 19-Aug-2018 3:53pm EDT
Overcast
Overcast
 Wind from SSE
Wind: SSE 10 mph , 17 km/h
Temperature: 81°F , 27°C
Heat Index: 82°F , 28°C
Dew Point: 63°F , 17°C
Humidity: 54%
Barometer: 30.01 inHg , 1016.3 hPa
Clouds: Overcast
Visibility: 10 miles , 16 km
Cloud details: Few Clouds 3500 ft
Partly cloudy 6000 ft
Overcast 25000 ft
2018/08/19 19:53 KPTK 191953Z 15009KT 10SM FEW035 SCT060 OVC250 27/17 A3001 RMK AO2 SLP156 T02670172
KMTC - Selfridge Angb, Michigan, USA
Distance from station: SSE 94mi, 151km
Updated: Sun, 19-Aug-2018 3:57pm EDT
Mostly cloudy
Mostly cloudy
 Wind from SE
Wind: SE 8 mph , 13 km/h
Temperature: 79°F , 26°C
Dew Point: 66°F , 19°C
Humidity: 65%
Barometer: 30.02 inHg , 1016.6 hPa
Clouds: Mostly cloudy
Visibility: 10 miles , 16 km
Cloud details: Few Clouds 3000 ft
Mostly cloudy 20000 ft
2018/08/19 19:57 KMTC 191957Z 14007KT 10SM FEW030 BKN200 26/19 A3002 RMK AO2A SLP167 ALSTG/SLP ESTMD T02570186 $